Vision — WDF6306 — position and weather

sailwx.info

Track history (hours):
 
Tides and Currents Weather Stations Pressure Air Temp Water Temp Dewpoint Dewpoint Depression Visibility Wind Speed Wind Dir Waves Ship Positions

Vision

Owner: INTREPID SHIP MANAGEMENT, JACKSONVILLE, FL. More information available from US FCC via Universal Licensing System and Coast Guard Vessel Documentation Center.

Last reported at 2017-Jan-20 21:32 UTC. Time now 2017-Jan-20 22:00 UTC.
Position N 37°44' W 122°20'.

Length 199 m; draft 7.3 m.

Type: Towing. MMSI: 366904000.

Date/timePositionNaut miles runAvg speedWind from/ knotsBaromVisibWave heightAir tempDewpointWater temp
2017-Jan-20 21:32N 37°44' W 122°20'0 0.0
2017-Jan-20 20:32N 37°44' W 122°20'0 0.1
2017-Jan-20 19:32N 37°44' W 122°20'0 0.1
2017-Jan-20 18:32N 37°44' W 122°20'0 0.1
2017-Jan-20 17:32N 37°44' W 122°20'0 0.0
2017-Jan-20 16:32N 37°44' W 122°20'0 0.0
2017-Jan-20 15:32N 37°44' W 122°20'0 0.2
2017-Jan-20 14:32N 37°44' W 122°20'0 0.0
2017-Jan-20 13:32N 37°44' W 122°20'0 0.0
2017-Jan-20 12:32N 37°44' W 122°20'0 0.2
2017-Jan-20 11:32N 37°44' W 122°20'0 0.1
2017-Jan-20 10:32N 37°44' W 122°20'0 0.1
2017-Jan-20 09:32N 37°44' W 122°20'0 0.0
2017-Jan-20 08:32N 37°44' W 122°20'0 0.0
2017-Jan-20 07:32N 37°44' W 122°20'0 0.0
2017-Jan-20 06:32N 37°44' W 122°20'0 0.0
2017-Jan-20 05:32N 37°44' W 122°20'0 0.0
2017-Jan-20 04:32N 37°44' W 122°20'0 0.1
2017-Jan-20 03:32N 37°44' W 122°20'0 0.1
2017-Jan-20 02:32N 37°44' W 122°20'0 0.0
2017-Jan-20 01:32N 37°44' W 122°19'0 0.0
2017-Jan-20 00:32N 37°44' W 122°19'0 0.0
2017-Jan-19 23:32N 37°44' W 122°19'0 0.0
2017-Jan-19 22:32N 37°44' W 122°19'0 0.1
2017-Jan-19 21:32N 37°44' W 122°19'0 0.1
2017-Jan-19 20:32N 37°44' W 122°19'0 0.1
2017-Jan-19 19:32N 37°44' W 122°19'0 0.1
2017-Jan-19 18:33N 37°44' W 122°20'0 0.0
2017-Jan-19 17:34N 37°44' W 122°20'0 0.1
2017-Jan-19 16:34N 37°44' W 122°20'0 0.1
2017-Jan-19 15:33N 37°44' W 122°20'0 0.1
2017-Jan-19 14:34N 37°44' W 122°19'0 0.1
2017-Jan-19 13:33N 37°44' W 122°19'2 1.5
2017-Jan-19 12:33N 37°44' W 122°21'1111.3
2017-Jan-19 11:33N 37°55' W 122°27'1110.9
2017-Jan-19 10:34N 38°03' W 122°18'8 1.5
2017-Jan-19 05:10N 38°02' W 122°08'0 0.0
2017-Jan-17 10:33N 38°02' W 122°08'0 0.0
2017-Jan-17 09:23N 38°02' W 122°08'0 0.0
2017-Jan-17 08:33N 38°02' W 122°08'0 0.0
2017-Jan-17 07:31N 38°02' W 122°08'0 0.0
2017-Jan-17 06:33N 38°02' W 122°08'0 0.0
2017-Jan-17 05:24N 38°02' W 122°08'0 0.0
2017-Jan-17 04:28N 38°02' W 122°08'0 0.0
2017-Jan-17 03:33N 38°02' W 122°08'0 0.3
2017-Jan-17 02:33N 38°02' W 122°08'8 8.1
2017-Jan-17 01:33N 38°03' W 122°18'10 9.7
2017-Jan-17 00:33N 37°56' W 122°27'10 9.7
2017-Jan-16 23:33N 37°47' W 122°22'2 1.6
2017-Jan-16 22:31N 37°46' W 122°20'0 0.0
2017-Jan-16 21:31N 37°46' W 122°20'0 0.0
2017-Jan-16 20:31N 37°46' W 122°20'0 0.0
2017-Jan-16 19:31N 37°46' W 122°20'0 0.0
2017-Jan-16 18:31N 37°46' W 122°20'0 0.2
2017-Jan-16 17:31N 37°46' W 122°20'0 0.1
2017-Jan-16 16:31N 37°46' W 122°21'0 0.0
2017-Jan-16 15:31N 37°46' W 122°21'0 0.0
2017-Jan-16 14:31N 37°46' W 122°21'0 0.0
2017-Jan-16 13:31N 37°46' W 122°21'0 0.0
2017-Jan-16 12:31N 37°46' W 122°21'0 0.3
2017-Jan-16 11:31N 37°46' W 122°20'0 0.0
2017-Jan-16 10:31N 37°46' W 122°20'0 0.0
2017-Jan-16 09:31N 37°46' W 122°20'0 0.0
2017-Jan-16 08:31N 37°46' W 122°20'0 0.1
2017-Jan-16 07:31N 37°46' W 122°20'0 0.1
2017-Jan-16 06:31N 37°46' W 122°20'0 0.0
2017-Jan-16 05:31N 37°46' W 122°20'0 0.2
2017-Jan-16 04:31N 37°46' W 122°20'0 0.0
2017-Jan-16 03:31N 37°46' W 122°21'0 0.0
2017-Jan-16 02:31N 37°46' W 122°21'0 0.0
2017-Jan-16 01:31N 37°46' W 122°21'0 0.0
2017-Jan-16 00:31N 37°46' W 122°21'0 0.0
2017-Jan-15 23:31N 37°46' W 122°20'0 0.3
2017-Jan-15 22:31N 37°46' W 122°21'0 0.1
2017-Jan-15 21:31N 37°46' W 122°20'0 0.0
2017-Jan-15 20:31N 37°46' W 122°20'0 0.0
2017-Jan-15 19:31N 37°46' W 122°20'0 0.1
2017-Jan-15 18:31N 37°46' W 122°20'0 0.1
2017-Jan-15 17:31N 37°46' W 122°20'0 0.1
2017-Jan-15 16:31N 37°46' W 122°20'0 0.2
2017-Jan-15 15:31N 37°46' W 122°21'0 0.0
2017-Jan-15 14:31N 37°46' W 122°21'0 0.0
2017-Jan-15 13:31N 37°46' W 122°21'0 0.0
2017-Jan-15 12:31N 37°46' W 122°21'0 0.3
2017-Jan-15 11:33N 37°46' W 122°21'8 8.3
2017-Jan-15 10:33N 37°48' W 122°31'1211.2
2017-Jan-15 09:27N 37°42' W 122°45'8 9.4
2017-Jan-15 08:33N 37°37' W 122°53'10 9.4
2017-Jan-15 07:30N 37°32' W 123°05'24 9.9
2017-Jan-15 05:03N 37°36' W 123°35'610.8
2017-Jan-15 04:32N 37°40' W 123°40'  
2017-Jan-12 16:33N 48°15' W 125°15'1211.9
2017-Jan-12 15:33N 48°25' W 125°06'1010.1
2017-Jan-12 14:33N 48°31' W 124°53'1211.6
2017-Jan-12 13:32N 48°28' W 124°36'1111.2
2017-Jan-12 12:33N 48°24' W 124°21'1110.8
2017-Jan-12 11:33N 48°20' W 124°06'1010.3
2017-Jan-12 10:33N 48°17' W 123°51'10 9.8
2017-Jan-12 09:33N 48°16' W 123°36'18 8.2
2017-Jan-12 07:24N 48°15' W 123°09'1012.3
2017-Jan-12 06:33N 48°21' W 122°57'1312.9
2017-Jan-12 05:33N 48°30' W 122°43'6 5.5
2017-Jan-12 04:33N 48°31' W 122°35'0 0.4
2017-Jan-12 03:33N 48°31' W 122°35'0 0.0
2017-Jan-12 02:31N 48°31' W 122°35'0 0.0
2017-Jan-12 01:31N 48°31' W 122°35'0 0.0
2017-Jan-12 00:31N 48°31' W 122°35'0 0.0
2017-Jan-11 23:31N 48°31' W 122°35'0 0.0
2017-Jan-11 22:31N 48°31' W 122°35'0 0.0
2017-Jan-11 21:31N 48°31' W 122°35'0 0.0
2017-Jan-11 20:31N 48°31' W 122°35'0 0.0
2017-Jan-11 19:31N 48°31' W 122°35'0 0.0
2017-Jan-11 18:31N 48°31' W 122°35'0 0.0
2017-Jan-11 17:31N 48°31' W 122°35'0 0.0
2017-Jan-11 16:31N 48°31' W 122°35'0 0.0
2017-Jan-11 15:31N 48°31' W 122°35'0 0.0
2017-Jan-11 14:31N 48°31' W 122°35'0 0.0
2017-Jan-11 13:31N 48°31' W 122°35'0 0.0
2017-Jan-11 12:31N 48°31' W 122°35'0 0.0
2017-Jan-11 11:19N 48°31' W 122°35'0 0.0
2017-Jan-11 10:31N 48°31' W 122°35'0 0.0
2017-Jan-11 09:25N 48°31' W 122°35'0 0.0
2017-Jan-11 08:31N 48°31' W 122°35'0 0.0
2017-Jan-11 07:31N 48°31' W 122°35'0 0.0
2017-Jan-11 06:31N 48°31' W 122°35'0 0.0
2017-Jan-11 05:31N 48°31' W 122°35'0 0.0
2017-Jan-11 04:25N 48°31' W 122°35'0 0.0
2017-Jan-11 03:31N 48°31' W 122°35'0 0.0
2017-Jan-11 02:31N 48°31' W 122°35'0 0.0
2017-Jan-11 01:31N 48°31' W 122°35'0 0.0
2017-Jan-11 00:31N 48°31' W 122°35'0 0.0
2017-Jan-10 23:31N 48°31' W 122°35'0 0.0
2017-Jan-10 22:31N 48°31' W 122°35'  
Track history (hours):
 
Tides and Currents Weather Stations Pressure Air Temp Water Temp Dewpoint Dewpoint Depression Visibility Wind Speed Wind Dir Waves Ship Positions

Vision

Owner: INTREPID SHIP MANAGEMENT, JACKSONVILLE, FL. More information available from US FCC via Universal Licensing System and Coast Guard Vessel Documentation Center.

Last reported at 2017-Jan-20 21:32 UTC. Time now 2017-Jan-20 22:00 UTC.
Position N 37°44' W 122°20'.

Length 199 m; draft 7.3 m.

Type: Towing. MMSI: 366904000.

Date/timePositionNaut miles runAvg speedWind from/ knotsBaromVisibWave heightAir tempDewpointWater temp
2017-Jan-20 21:32N 37°44' W 122°20'0 0.0
2017-Jan-20 20:32N 37°44' W 122°20'0 0.1
2017-Jan-20 19:32N 37°44' W 122°20'0 0.1
2017-Jan-20 18:32N 37°44' W 122°20'0 0.1
2017-Jan-20 17:32N 37°44' W 122°20'0 0.0
2017-Jan-20 16:32N 37°44' W 122°20'0 0.0
2017-Jan-20 15:32N 37°44' W 122°20'0 0.2
2017-Jan-20 14:32N 37°44' W 122°20'0 0.0
2017-Jan-20 13:32N 37°44' W 122°20'0 0.0
2017-Jan-20 12:32N 37°44' W 122°20'0 0.2
2017-Jan-20 11:32N 37°44' W 122°20'0 0.1
2017-Jan-20 10:32N 37°44' W 122°20'0 0.1
2017-Jan-20 09:32N 37°44' W 122°20'0 0.0
2017-Jan-20 08:32N 37°44' W 122°20'0 0.0
2017-Jan-20 07:32N 37°44' W 122°20'0 0.0
2017-Jan-20 06:32N 37°44' W 122°20'0 0.0
2017-Jan-20 05:32N 37°44' W 122°20'0 0.0
2017-Jan-20 04:32N 37°44' W 122°20'0 0.1
2017-Jan-20 03:32N 37°44' W 122°20'0 0.1
2017-Jan-20 02:32N 37°44' W 122°20'0 0.0
2017-Jan-20 01:32N 37°44' W 122°19'0 0.0
2017-Jan-20 00:32N 37°44' W 122°19'0 0.0
2017-Jan-19 23:32N 37°44' W 122°19'0 0.0
2017-Jan-19 22:32N 37°44' W 122°19'0 0.1
2017-Jan-19 21:32N 37°44' W 122°19'0 0.1
2017-Jan-19 20:32N 37°44' W 122°19'0 0.1
2017-Jan-19 19:32N 37°44' W 122°19'0 0.1
2017-Jan-19 18:33N 37°44' W 122°20'0 0.0
2017-Jan-19 17:34N 37°44' W 122°20'0 0.1
2017-Jan-19 16:34N 37°44' W 122°20'0 0.1
2017-Jan-19 15:33N 37°44' W 122°20'0 0.1
2017-Jan-19 14:34N 37°44' W 122°19'0 0.1
2017-Jan-19 13:33N 37°44' W 122°19'2 1.5
2017-Jan-19 12:33N 37°44' W 122°21'1111.3
2017-Jan-19 11:33N 37°55' W 122°27'1110.9
2017-Jan-19 10:34N 38°03' W 122°18'8 1.5
2017-Jan-19 05:10N 38°02' W 122°08'0 0.0
2017-Jan-17 10:33N 38°02' W 122°08'0 0.0
2017-Jan-17 09:23N 38°02' W 122°08'0 0.0
2017-Jan-17 08:33N 38°02' W 122°08'0 0.0
2017-Jan-17 07:31N 38°02' W 122°08'0 0.0
2017-Jan-17 06:33N 38°02' W 122°08'0 0.0
2017-Jan-17 05:24N 38°02' W 122°08'0 0.0
2017-Jan-17 04:28N 38°02' W 122°08'0 0.0
2017-Jan-17 03:33N 38°02' W 122°08'0 0.3
2017-Jan-17 02:33N 38°02' W 122°08'8 8.1
2017-Jan-17 01:33N 38°03' W 122°18'10 9.7
2017-Jan-17 00:33N 37°56' W 122°27'10 9.7
2017-Jan-16 23:33N 37°47' W 122°22'2 1.6
2017-Jan-16 22:31N 37°46' W 122°20'0 0.0
2017-Jan-16 21:31N 37°46' W 122°20'0 0.0
2017-Jan-16 20:31N 37°46' W 122°20'0 0.0
2017-Jan-16 19:31N 37°46' W 122°20'0 0.0
2017-Jan-16 18:31N 37°46' W 122°20'0 0.2
2017-Jan-16 17:31N 37°46' W 122°20'0 0.1
2017-Jan-16 16:31N 37°46' W 122°21'0 0.0
2017-Jan-16 15:31N 37°46' W 122°21'0 0.0
2017-Jan-16 14:31N 37°46' W 122°21'0 0.0
2017-Jan-16 13:31N 37°46' W 122°21'0 0.0
2017-Jan-16 12:31N 37°46' W 122°21'0 0.3
2017-Jan-16 11:31N 37°46' W 122°20'0 0.0
2017-Jan-16 10:31N 37°46' W 122°20'0 0.0
2017-Jan-16 09:31N 37°46' W 122°20'0 0.0
2017-Jan-16 08:31N 37°46' W 122°20'0 0.1
2017-Jan-16 07:31N 37°46' W 122°20'0 0.1
2017-Jan-16 06:31N 37°46' W 122°20'0 0.0
2017-Jan-16 05:31N 37°46' W 122°20'0 0.2
2017-Jan-16 04:31N 37°46' W 122°20'0 0.0
2017-Jan-16 03:31N 37°46' W 122°21'0 0.0
2017-Jan-16 02:31N 37°46' W 122°21'0 0.0
2017-Jan-16 01:31N 37°46' W 122°21'0 0.0
2017-Jan-16 00:31N 37°46' W 122°21'0 0.0
2017-Jan-15 23:31N 37°46' W 122°20'0 0.3
2017-Jan-15 22:31N 37°46' W 122°21'0 0.1
2017-Jan-15 21:31N 37°46' W 122°20'0 0.0
2017-Jan-15 20:31N 37°46' W 122°20'0 0.0
2017-Jan-15 19:31N 37°46' W 122°20'0 0.1
2017-Jan-15 18:31N 37°46' W 122°20'0 0.1
2017-Jan-15 17:31N 37°46' W 122°20'0 0.1
2017-Jan-15 16:31N 37°46' W 122°20'0 0.2
2017-Jan-15 15:31N 37°46' W 122°21'0 0.0
2017-Jan-15 14:31N 37°46' W 122°21'0 0.0
2017-Jan-15 13:31N 37°46' W 122°21'0 0.0
2017-Jan-15 12:31N 37°46' W 122°21'0 0.3
2017-Jan-15 11:33N 37°46' W 122°21'8 8.3
2017-Jan-15 10:33N 37°48' W 122°31'1211.2
2017-Jan-15 09:27N 37°42' W 122°45'8 9.4
2017-Jan-15 08:33N 37°37' W 122°53'10 9.4
2017-Jan-15 07:30N 37°32' W 123°05'24 9.9
2017-Jan-15 05:03N 37°36' W 123°35'610.8
2017-Jan-15 04:32N 37°40' W 123°40'  
2017-Jan-12 16:33N 48°15' W 125°15'1211.9
2017-Jan-12 15:33N 48°25' W 125°06'1010.1
2017-Jan-12 14:33N 48°31' W 124°53'1211.6
2017-Jan-12 13:32N 48°28' W 124°36'1111.2
2017-Jan-12 12:33N 48°24' W 124°21'1110.8
2017-Jan-12 11:33N 48°20' W 124°06'1010.3
2017-Jan-12 10:33N 48°17' W 123°51'10 9.8
2017-Jan-12 09:33N 48°16' W 123°36'18 8.2
2017-Jan-12 07:24N 48°15' W 123°09'1012.3
2017-Jan-12 06:33N 48°21' W 122°57'1312.9
2017-Jan-12 05:33N 48°30' W 122°43'6 5.5
2017-Jan-12 04:33N 48°31' W 122°35'0 0.4
2017-Jan-12 03:33N 48°31' W 122°35'0 0.0
2017-Jan-12 02:31N 48°31' W 122°35'0 0.0
2017-Jan-12 01:31N 48°31' W 122°35'0 0.0
2017-Jan-12 00:31N 48°31' W 122°35'0 0.0
2017-Jan-11 23:31N 48°31' W 122°35'0 0.0
2017-Jan-11 22:31N 48°31' W 122°35'0 0.0
2017-Jan-11 21:31N 48°31' W 122°35'0 0.0
2017-Jan-11 20:31N 48°31' W 122°35'0 0.0
2017-Jan-11 19:31N 48°31' W 122°35'0 0.0
2017-Jan-11 18:31N 48°31' W 122°35'0 0.0
2017-Jan-11 17:31N 48°31' W 122°35'0 0.0
2017-Jan-11 16:31N 48°31' W 122°35'0 0.0
2017-Jan-11 15:31N 48°31' W 122°35'0 0.0
2017-Jan-11 14:31N 48°31' W 122°35'0 0.0
2017-Jan-11 13:31N 48°31' W 122°35'0 0.0
2017-Jan-11 12:31N 48°31' W 122°35'0 0.0
2017-Jan-11 11:19N 48°31' W 122°35'0 0.0
2017-Jan-11 10:31N 48°31' W 122°35'0 0.0
2017-Jan-11 09:25N 48°31' W 122°35'0 0.0
2017-Jan-11 08:31N 48°31' W 122°35'0 0.0
2017-Jan-11 07:31N 48°31' W 122°35'0 0.0
2017-Jan-11 06:31N 48°31' W 122°35'0 0.0
2017-Jan-11 05:31N 48°31' W 122°35'0 0.0
2017-Jan-11 04:25N 48°31' W 122°35'0 0.0
2017-Jan-11 03:31N 48°31' W 122°35'0 0.0
2017-Jan-11 02:31N 48°31' W 122°35'0 0.0
2017-Jan-11 01:31N 48°31' W 122°35'0 0.0
2017-Jan-11 00:31N 48°31' W 122°35'0 0.0
2017-Jan-10 23:31N 48°31' W 122°35'0 0.0
2017-Jan-10 22:31N 48°31' W 122°35'  

Dump ship's entire track history